createdAt,value
2022-12-14T00:03:37.968Z,-1.50
2022-12-14T00:07:46.767Z,-1.60
2022-12-14T00:12:16.286Z,-1.60
2022-12-14T00:16:27.417Z,-1.70
2022-12-14T00:20:36.000Z,-1.70
2022-12-14T00:24:44.631Z,-1.70
2022-12-14T00:29:12.715Z,-1.70
2022-12-14T00:33:21.343Z,-1.70
2022-12-14T00:37:29.859Z,-1.70
2022-12-14T00:41:38.429Z,-1.70
2022-12-14T00:45:47.617Z,-1.70
2022-12-14T00:49:56.173Z,-1.60
2022-12-14T00:54:04.895Z,-1.60
2022-12-14T00:58:15.218Z,-1.60
2022-12-14T01:02:23.943Z,-1.60
2022-12-14T01:06:32.628Z,-1.60
2022-12-14T01:10:41.255Z,-1.60
2022-12-14T01:14:50.719Z,-1.60
2022-12-14T01:19:01.812Z,-1.60
2022-12-14T01:23:10.385Z,-1.50
2022-12-14T01:27:38.399Z,-1.50
2022-12-14T01:31:48.692Z,-1.50
2022-12-14T01:36:20.750Z,-1.50
2022-12-14T01:40:29.375Z,-1.50
2022-12-14T01:44:41.005Z,-1.50
2022-12-14T01:48:52.570Z,-1.50
2022-12-14T01:53:21.781Z,-1.50
2022-12-14T01:57:33.483Z,-1.50
2022-12-14T02:01:42.740Z,-1.50
2022-12-14T02:05:59.998Z,-1.50
2022-12-14T02:10:09.939Z,-1.50
2022-12-14T02:14:18.542Z,-1.50
2022-12-14T02:18:29.637Z,-1.60
2022-12-14T02:22:59.148Z,-1.60
2022-12-14T02:27:31.473Z,-1.60
2022-12-14T02:32:02.692Z,-1.60
2022-12-14T02:36:26.064Z,-1.60
2022-12-14T02:40:55.833Z,-1.60
2022-12-14T02:45:25.257Z,-1.60
2022-12-14T02:49:40.078Z,-1.60
2022-12-14T02:54:06.984Z,-1.60
2022-12-14T02:58:39.221Z,-1.60
2022-12-14T03:02:49.975Z,-1.70
2022-12-14T03:07:02.728Z,-1.70
2022-12-14T03:11:14.485Z,-1.70
2022-12-14T03:15:26.710Z,-1.70
2022-12-14T03:19:41.413Z,-1.70
2022-12-14T03:23:53.009Z,-1.70
2022-12-14T03:28:10.552Z,-1.70
2022-12-14T03:32:21.993Z,-1.80
2022-12-14T03:36:52.931Z,-1.80
2022-12-14T03:41:25.520Z,-1.80
2022-12-14T03:45:42.777Z,-1.70
2022-12-14T03:50:15.982Z,-1.70
2022-12-14T03:55:01.000Z,-1.70
2022-12-14T03:59:33.178Z,-1.70
2022-12-14T04:03:56.656Z,-1.70
2022-12-14T04:08:35.091Z,-1.70
2022-12-14T04:13:02.964Z,-1.70
2022-12-14T04:17:50.196Z,-1.70
2022-12-14T04:22:01.794Z,-1.70
2022-12-14T04:26:13.497Z,-1.70
2022-12-14T04:30:22.227Z,-1.70
2022-12-14T04:34:34.237Z,-1.70
2022-12-14T04:38:44.487Z,-1.70
2022-12-14T04:42:59.070Z,-1.70
2022-12-14T04:47:11.077Z,-1.70
2022-12-14T04:51:34.824Z,-1.70
2022-12-14T04:55:46.561Z,-1.70
2022-12-14T04:59:57.914Z,-1.70
2022-12-14T05:04:34.134Z,-1.70
2022-12-14T05:08:45.729Z,-1.70
2022-12-14T05:13:29.018Z,-1.70
2022-12-14T05:17:40.149Z,-1.70
2022-12-14T05:21:48.793Z,-1.70
2022-12-14T05:25:57.373Z,-1.60
2022-12-14T05:30:06.928Z,-1.60
2022-12-14T05:34:15.501Z,-1.60
2022-12-14T05:38:24.222Z,-1.60
2022-12-14T05:42:32.953Z,-1.70
2022-12-14T05:46:41.543Z,-1.60
2022-12-14T05:50:50.278Z,-1.60
2022-12-14T05:55:03.856Z,-1.60
2022-12-14T05:59:09.208Z,-1.60
2022-12-14T06:03:37.190Z,-1.60
2022-12-14T06:07:45.818Z,-1.60
2022-12-14T06:11:54.759Z,-1.60
2022-12-14T06:16:24.482Z,-1.70
2022-12-14T06:20:33.212Z,-1.70
2022-12-14T06:24:41.837Z,-1.70
2022-12-14T06:28:50.466Z,-1.70
2022-12-14T06:32:58.998Z,-1.60
2022-12-14T06:37:07.623Z,-1.60
2022-12-14T06:41:16.290Z,-1.60
2022-12-14T06:45:25.021Z,-1.60
2022-12-14T06:49:33.797Z,-1.50
2022-12-14T06:53:42.374Z,-1.60
2022-12-14T06:57:54.775Z,-1.60
2022-12-14T07:02:03.417Z,-1.50
2022-12-14T07:06:12.122Z,-1.50
2022-12-14T07:10:20.764Z,-1.50
2022-12-14T07:14:29.374Z,-1.50
2022-12-14T07:18:38.003Z,-1.50
2022-12-14T07:23:06.088Z,-1.50
2022-12-14T07:27:33.971Z,-1.40
2022-12-14T07:31:44.595Z,-1.50
2022-12-14T07:36:03.728Z,-1.50
2022-12-14T07:40:12.715Z,-1.40
2022-12-14T07:44:40.637Z,-1.40
2022-12-14T07:48:51.829Z,-1.40
2022-12-14T07:53:00.557Z,-1.40
2022-12-14T07:57:09.189Z,-1.40
2022-12-14T08:01:20.074Z,-1.40
2022-12-14T08:05:28.698Z,-1.30
2022-12-14T08:09:37.324Z,-1.30
2022-12-14T08:13:46.967Z,-1.30
2022-12-14T08:17:55.709Z,-1.30
2022-12-14T08:22:04.388Z,-1.30
2022-12-14T08:26:35.824Z,-1.10
2022-12-14T08:30:42.533Z,-1.10
2022-12-14T08:34:51.103Z,-1.10
2022-12-14T08:39:01.702Z,-1.10
2022-12-14T08:43:10.712Z,-1.10
2022-12-14T08:47:19.250Z,-1.10
2022-12-14T08:51:29.327Z,-1.10
2022-12-14T08:55:39.010Z,-1.10
2022-12-14T09:00:03.303Z,-1.10
2022-12-14T09:03:59.517Z,-1.10
2022-12-14T09:08:08.128Z,-1.10
2022-12-14T09:12:16.732Z,-1.20
2022-12-14T09:16:27.446Z,-1.20
2022-12-14T09:20:36.701Z,-1.20
2022-12-14T09:24:45.301Z,-1.20
2022-12-14T09:29:16.600Z,-1.20
2022-12-14T09:33:27.140Z,-1.20
2022-12-14T09:37:36.077Z,-1.20
2022-12-14T09:41:59.265Z,-1.20
2022-12-14T09:46:07.370Z,-1.20
2022-12-14T09:50:18.859Z,-1.20
2022-12-14T09:59:03.386Z,-1.20
2022-12-14T10:03:37.005Z,-1.30
2022-12-14T10:08:22.382Z,-1.30
2022-12-14T10:12:48.759Z,-1.30
2022-12-14T10:17:06.296Z,-1.40
2022-12-14T10:21:18.083Z,-1.40
2022-12-14T10:25:29.180Z,-1.40
2022-12-14T10:29:40.813Z,-1.40
2022-12-14T10:34:13.343Z,-1.40
2022-12-14T10:38:28.119Z,-1.30
2022-12-14T10:42:43.152Z,-1.30
2022-12-14T10:46:59.372Z,-1.30
2022-12-14T10:51:30.503Z,-1.20
2022-12-14T10:55:43.384Z,-1.20
2022-12-14T11:00:07.955Z,-1.20
2022-12-14T11:04:07.057Z,-1.20
2022-12-14T11:08:35.382Z,-1.20
2022-12-14T11:13:05.529Z,-1.10
2022-12-14T11:17:53.358Z,-1.10
2022-12-14T11:22:22.709Z,-1.00
2022-12-14T11:26:37.660Z,-1.00
2022-12-14T11:31:12.986Z,-1.00
2022-12-14T11:35:22.560Z,-1.00
2022-12-14T11:39:31.393Z,-1.00
2022-12-14T11:43:40.526Z,-1.00
2022-12-14T11:47:52.237Z,-1.10
2022-12-14T11:52:04.146Z,-1.10
2022-12-14T11:56:16.258Z,-1.10
2022-12-14T12:00:33.560Z,-1.10
2022-12-14T12:04:45.198Z,-1.10
2022-12-14T12:08:59.508Z,-1.10
2022-12-14T12:13:19.651Z,-1.10
2022-12-14T12:17:39.898Z,-1.00
2022-12-14T12:21:48.574Z,-1.00
2022-12-14T12:25:59.443Z,-0.90
2022-12-14T12:30:11.427Z,-0.90
2022-12-14T12:34:25.799Z,-0.90
2022-12-14T12:38:43.375Z,-0.80
2022-12-14T12:42:59.238Z,-0.80
2022-12-14T12:47:44.479Z,-0.70
2022-12-14T12:51:49.786Z,-0.70
2022-12-14T12:56:07.175Z,-0.60
2022-12-14T13:00:27.156Z,-0.60
2022-12-14T13:04:38.794Z,-0.60
2022-12-14T13:08:51.336Z,-0.50
2022-12-14T13:13:08.782Z,-0.50
2022-12-14T13:17:35.571Z,-0.50
2022-12-14T13:22:06.458Z,-0.40
2022-12-14T13:26:58.837Z,-0.30
2022-12-14T13:31:22.222Z,-0.20
2022-12-14T13:35:49.584Z,-0.20
2022-12-14T13:40:19.205Z,-0.20
2022-12-14T13:44:43.905Z,-0.20
2022-12-14T13:48:52.864Z,-0.20
2022-12-14T13:53:05.020Z,-0.20
2022-12-14T13:57:17.436Z,-0.20
2022-12-14T14:01:48.393Z,-0.20
2022-12-14T14:06:11.880Z,-0.20
2022-12-14T14:10:42.151Z,-0.10
2022-12-14T14:15:22.719Z,-0.10
2022-12-14T14:19:31.234Z,-0.10
2022-12-14T14:23:46.797Z,-0.10
2022-12-14T14:27:56.253Z,-0.10
2022-12-14T14:32:28.781Z,-0.20
2022-12-14T14:36:38.015Z,-0.20
2022-12-14T14:41:15.223Z,-0.20
2022-12-14T14:45:03.259Z,-0.20
2022-12-14T14:49:24.036Z,-0.30
2022-12-14T14:53:36.320Z,-0.20
2022-12-14T14:58:06.112Z,-0.30
2022-12-14T15:02:32.458Z,-0.30
2022-12-14T15:06:43.422Z,-0.30
2022-12-14T15:11:16.135Z,-0.40
2022-12-14T15:15:39.610Z,-0.40
2022-12-14T15:19:51.077Z,-0.50
2022-12-14T15:23:59.840Z,-0.60
2022-12-14T15:28:08.951Z,-0.60
2022-12-14T15:32:19.234Z,-0.60
2022-12-14T15:36:34.036Z,-0.60
2022-12-14T15:40:44.181Z,-0.70
2022-12-14T15:44:55.230Z,-0.70
2022-12-14T15:49:11.473Z,-0.80
2022-12-14T15:53:32.662Z,-0.90
2022-12-14T15:57:41.627Z,-1.00
2022-12-14T16:01:56.148Z,-1.00
2022-12-14T16:06:03.956Z,-1.20
2022-12-14T16:10:33.097Z,-1.30
2022-12-14T16:14:50.485Z,-1.30
2022-12-14T16:19:20.179Z,-1.30
2022-12-14T16:23:18.707Z,-1.40
2022-12-14T16:27:28.997Z,-1.40
2022-12-14T16:31:38.919Z,-1.50
2022-12-14T16:35:50.165Z,-1.50
2022-12-14T16:39:58.812Z,-1.50
2022-12-14T16:44:31.821Z,-1.50
2022-12-14T16:48:43.538Z,-1.60
2022-12-14T16:53:16.662Z,-1.60
2022-12-14T16:57:25.763Z,-1.70
2022-12-14T17:01:48.214Z,-1.70
2022-12-14T17:06:03.478Z,-1.80
2022-12-14T17:10:31.271Z,-1.90
2022-12-14T17:14:43.490Z,-1.90
2022-12-14T17:18:53.865Z,-1.90
2022-12-14T17:23:07.782Z,-1.90
2022-12-14T17:27:18.456Z,-2.00
2022-12-14T17:31:29.800Z,-2.00
2022-12-14T17:35:38.712Z,-2.10
2022-12-14T17:39:47.574Z,-2.20
2022-12-14T17:43:57.637Z,-2.20
2022-12-14T17:48:07.108Z,-2.20
2022-12-14T17:52:23.980Z,-2.30
2022-12-14T17:56:32.606Z,-2.40
2022-12-14T18:00:59.263Z,-2.40
2022-12-14T18:05:09.534Z,-2.40
2022-12-14T18:09:20.494Z,-2.40
2022-12-14T18:13:31.693Z,-2.50
2022-12-14T18:17:41.042Z,-2.50
2022-12-14T18:21:51.129Z,-2.60
2022-12-14T18:26:02.722Z,-2.60
2022-12-14T18:30:12.469Z,-2.60
2022-12-14T18:34:21.111Z,-2.70
2022-12-14T18:38:29.921Z,-2.80
2022-12-14T18:42:40.335Z,-2.80
2022-12-14T18:46:49.185Z,-2.80
2022-12-14T18:50:58.367Z,-2.80
2022-12-14T18:55:10.226Z,-2.90
2022-12-14T18:59:18.905Z,-3.00
2022-12-14T19:03:31.111Z,-3.00
2022-12-14T19:07:40.152Z,-3.00
2022-12-14T19:11:49.046Z,-3.00
2022-12-14T19:15:58.375Z,-3.10
2022-12-14T19:20:07.832Z,-3.10
2022-12-14T19:24:16.713Z,-3.10
2022-12-14T19:28:32.540Z,-3.10
2022-12-14T19:32:35.610Z,-3.20
2022-12-14T19:36:44.237Z,-3.20
2022-12-14T19:41:04.068Z,-3.30
2022-12-14T19:45:13.543Z,-3.30
2022-12-14T19:49:22.926Z,-3.30
2022-12-14T19:53:53.089Z,-3.40
2022-12-14T19:58:01.686Z,-3.40
2022-12-14T20:02:14.939Z,-3.40
2022-12-14T20:06:26.215Z,-3.40
2022-12-14T20:10:34.798Z,-3.50
2022-12-14T20:14:43.376Z,-3.50
2022-12-14T20:18:52.314Z,-3.50
2022-12-14T20:23:03.510Z,-3.60
2022-12-14T20:27:12.156Z,-3.70
2022-12-14T20:31:22.336Z,-3.70
2022-12-14T20:35:33.474Z,-3.80
2022-12-14T20:39:42.004Z,-3.80
2022-12-14T20:43:50.563Z,-3.80
2022-12-14T20:47:59.157Z,-3.80
2022-12-14T20:52:07.888Z,-3.90
2022-12-14T20:56:16.519Z,-3.90
2022-12-14T21:00:25.040Z,-3.90
2022-12-14T21:04:33.775Z,-3.80
2022-12-14T21:09:03.975Z,-3.90
2022-12-14T21:13:12.636Z,-3.80
2022-12-14T21:17:23.476Z,-3.90
2022-12-14T21:21:32.251Z,-3.90
2022-12-14T21:25:40.880Z,-4.00
2022-12-14T21:29:49.715Z,-4.00
2022-12-14T21:33:58.348Z,-4.00
2022-12-14T21:38:06.990Z,-4.00
2022-12-14T21:42:15.603Z,-4.00
2022-12-14T21:46:27.952Z,-4.00
2022-12-14T21:50:34.494Z,-4.20
2022-12-14T21:54:43.942Z,-4.20
2022-12-14T21:58:54.077Z,-4.20
2022-12-14T22:03:02.990Z,-4.20
2022-12-14T22:07:11.682Z,-4.20
2022-12-14T22:11:21.128Z,-4.20
2022-12-14T22:15:29.701Z,-4.30
2022-12-14T22:19:38.266Z,-4.30
2022-12-14T22:23:46.837Z,-4.30
2022-12-14T22:27:55.421Z,-4.40
2022-12-14T22:32:04.294Z,-4.40
2022-12-14T22:36:13.297Z,-4.40
2022-12-14T22:40:21.907Z,-4.40
2022-12-14T22:44:30.502Z,-4.40
2022-12-14T22:48:39.931Z,-4.40
2022-12-14T22:52:49.886Z,-4.50
2022-12-14T22:57:04.319Z,-4.60
2022-12-14T23:01:33.678Z,-4.50
2022-12-14T23:05:42.583Z,-4.50
2022-12-14T23:14:43.087Z,-4.50
2022-12-14T23:19:09.471Z,-4.40
2022-12-14T23:23:36.226Z,-4.40
2022-12-14T23:28:04.617Z,-4.40
2022-12-14T23:32:30.965Z,-4.50
2022-12-14T23:37:00.426Z,-4.50
2022-12-14T23:41:26.928Z,-4.50
2022-12-14T23:45:53.562Z,-4.60
2022-12-14T23:50:20.330Z,-4.60
2022-12-14T23:59:26.287Z,-4.60
